ADDS METAR Data INFO
IDs: Format: Raw Decoded Include TAF

Data at: 0142 UTC 17 Oct 2017

PATQ 170056Z AUTO 24013KT 9SM -SN BKN016 BKN026 OVC035 M07/M08 A2961 RMK AO2 SLP033 P0000 T10671083 FZRANO TSNO
PATQ 170048Z AUTO 24012KT 8SM -SN BKN018 BKN024 OVC043 M07/M08 A2961 RMK AO2 P0000 FZRANO TSNO
PATQ 170037Z AUTO 24013KT 5SM -SN BR FEW018 BKN036 OVC045 M07/M08 A2961 RMK AO2 P0000 FZRANO TSNO
PATQ 162356Z AUTO 24011KT 9SM -SN BKN020 M07/M09 A2962 RMK AO2 SLP038 P0000 60000 T10671089 11067 21094 58007 FZRANO TSNO
PATQ 162256Z AUTO 24014KT 4SM -SN BR OVC022 M07/M09 A2963 RMK AO2 SLP041 P0000 T10721089 FZRANO TSNO
PATQ 162219Z AUTO 24014KT 3SM -SN BR OVC028 M07/M09 A2964 RMK AO2 P0000 FZRANO TSNO
PATQ 162156Z AUTO 24012KT 9SM -SN OVC030 M08/M10 A2964 RMK AO2 SLP044 P0000 T10781100 FZRANO TSNO
PATQ 162131Z AUTO 24015KT 9SM -SN BKN028 OVC037 M08/M11 A2964 RMK AO2 P0000 FZRANO TSNO
PATQ 161956Z AUTO 24013KT 9SM -SN SCT041 OVC055 M09/M11 A2965 RMK AO2 SNB20 SLP049 P0000 T10891111 FZRANO TSNO
PATQ 161856Z AUTO 24011KT 10SM OVC049 M09/M11 A2966 RMK AO2 SLP050 T10941111 FZRANO TSNO
PATQ 161756Z AUTO 25012KT 10SM BKN049 OVC110 M09/M11 A2966 RMK AO2 SLP052 60000 T10941111 11078 21100 58008 FZRANO TSNO
PATQ 161656Z AUTO 24010KT 9SM FEW025 BKN047 OVC110 M09/M11 A2967 RMK AO2 SNB39E51 SLP054 P0000 T10891111 FZRANO TSNO
PATQ 161648Z AUTO 24010KT 9SM -SN SCT025 BKN047 OVC110 M09/M11 A2967 RMK AO2 SNB39 P0000 FZRANO TSNO
PATQ 161556Z AUTO 24010KT 10SM OVC025 M08/M10 A2968 RMK AO2 SLP058 T10831100 FZRANO TSNO
PATQ 161534Z AUTO 24009KT 10SM OVC027 M08/M10 A2969 RMK AO2 FZRANO TSNO
PATQ 161456Z AUTO 25009KT 10SM OVC034 M08/M10 A2969 RMK AO2 SLP061 T10831100 58007 FZRANO TSNO
PATQ 161356Z AUTO 26007KT 10SM OVC036 M10/M11 A2970 RMK AO2 SLP064 T11001111 FZRANO TSNO
PATQ 161256Z AUTO 26007KT 10SM FEW036 M09/M10 A2970 RMK AO2 SLP066 T10891100 FZRANO TSNO
PATQ 161156Z AUTO 27006KT 10SM CLR M08/M10 A2971 RMK AO2 SLP068 60000 T10831100 11061 21083 58005 FZRANO TSNO
PATQ 161056Z AUTO 27007KT 10SM FEW032 M08/M11 A2972 RMK AO2 SLP070 T10831106 FZRANO TSNO
PATQ 160956Z AUTO 26007KT 10SM OVC032 M07/M10 A2972 RMK AO2 SLP072 T10721100 FZRANO TSNO
PATQ 160856Z AUTO 23006KT 10SM OVC032 M07/M09 A2972 RMK AO2 SNB0759E09B25E45 SLP072 P0000 60000 T10671094 410501067 58001 FZRANO TSNO
PATQ 160756Z AUTO 21004KT 10SM OVC032 M07/M09 A2973 RMK AO2 SLP073 T10671089 FZRANO TSNO
PATQ 160656Z AUTO 25004KT 10SM OVC034 M07/M09 A2973 RMK AO2 SLP073 T10671089 FZRANO TSNO
PATQ 160556Z AUTO 18006KT 10SM OVC034 M06/M09 A2973 RMK AO2 SLP074 60000 T10611094 11056 21067 58006 FZRANO TSNO
PATQ 160456Z AUTO 17005KT 10SM OVC032 M07/M09 A2973 RMK AO2 SLP075 T10671094 FZRANO TSNO
PATQ 160356Z AUTO 00000KT 10SM OVC032 M07/M09 A2974 RMK AO2 SLP078 T10671094 FZRANO TSNO
PATQ 160256Z AUTO 14004KT 10SM OVC034 M06/M09 A2975 RMK AO2 SNE15 SLP080 P0000 60000 T10611094 58008 FZRANO TSNO
PATQ 160235Z AUTO 00000KT 10SM SCT027 OVC034 M06/M09 A2975 RMK AO2 SNE15 P0000 FZRANO TSNO
PATQ 160156Z AUTO 11004KT 9SM -SN OVC025 M06/M09 A2976 RMK AO2 SLP084 P0000 T10611094 FZRANO TSNO
PATQ 152356Z AUTO 07009KT 9SM -SN OVC023 M06/M09 A2977 RMK AO2 SLP088 P0000 60000 T10561089 11056 21056 58008 FZRANO TSNO
PATQ 152256Z AUTO 09006KT 9SM -SN OVC023 M06/M09 A2978 RMK AO2 SLP092 P0000 T10561094 FZRANO TSNO
PATQ 152156Z AUTO 10006KT 9SM -SN OVC019 M06/M08 A2979 RMK AO2 SLP095 P0000 T10561078 FZRANO TSNO
PATQ 152056Z AUTO 10008KT 6SM -SN BR SCT009 BKN019 OVC024 M06/M07 A2979 RMK AO2 SLP097 P0000 60000 T10561067 57003 FZRANO TSNO
PATQ 152024Z AUTO 09007KT 9SM -SN FEW009 OVC024 M06/M07 A2980 RMK AO2 P0000 FZRANO TSNO
PATQ 151956Z AUTO 09007KT 8SM -SN OVC026 M06/M07 A2980 RMK AO2 SLP098 P0000 T10561067 FZRANO TSNO
PATQ 151856Z AUTO 09006KT 4SM -SN BR FEW009 SCT014 OVC022 M06/M07 A2980 RMK AO2 SLP099 P0000 T10561072 FZRANO TSNO
PATQ 151846Z AUTO 09008KT 3SM -SN BR SCT009 BKN014 OVC026 M06/M07 A2980 RMK AO2 P0000 FZRANO TSNO
PATQ 151805Z AUTO 07008KT 9SM -SN SCT011 OVC028 M06/M07 A2980 RMK AO2 P0000 FZRANO TSNO
PATQ 151756Z AUTO 08007KT 9SM -SN BKN011 OVC026 M06/M07 A2980 RMK AO2 CIG 008V014 SLP100 P0000 60000 T10561067 11056 21056 56006 FZRANO TSNO
PATQ 151752Z AUTO 07008KT 8SM -SN BKN011 BKN014 OVC026 M06/M07 A2980 RMK AO2 P0000 FZRANO TSNO
PATQ 151656Z AUTO 07007KT 9SM -SN OVC026 M06/M07 A2981 RMK AO2 SLP102 P0000 T10561072 FZRANO TSNO
PATQ 151556Z AUTO 08008KT 9SM -SN FEW012 OVC026 M06/M07 A2982 RMK AO2 SLP106 P0000 T10561067 FZRANO TSNO
PATQ 151456Z AUTO 08008KT 9SM -SN OVC024 M06/M07 A2983 RMK AO2 SLP109 P0000 60000 T10561072 56009 FZRANO TSNO
PATQ 151356Z AUTO 08009KT 9SM -SN OVC024 M06/M07 A2984 RMK AO2 SLP110 P0000 T10561072 FZRANO TSNO